Flight Track Log - Related Links

Times and Time Zones

All times are in EDT time to prevent confusion due to time zone crossing. See the ASA745 flight status page for this flight to view local times or setup timezone preferences in your user account.

Time Position Orientation Groundspeed Altitude Reporting Facility
EDT Latitude Longitude Course Direction KTS MPH feet Rate Location/Type
Sun 09:20:23 AM 33.6500 -84.3667 68° East 175 201 2,900  Level Atlanta TRACON
Sun 09:21:17 AM 33.6667 -84.3167 68° East 219 252 4,900 2,286 Climbing Atlanta TRACON
Sun 09:22:29 AM 33.6833 -84.2167 79° East 278 320 7,700 2,476 Climbing Atlanta TRACON
Sun 09:23:23 AM 33.7500 -84.1833 23° Northeast 297 342 10,100 1,263 Climbing Atlanta TRACON
Sun 09:24:23 AM 33.8333 -84.1833 360° North 321 369 10,100 1,033 Level Atlanta TRACON
Sun 09:26:52 AM 33.9817 -84.3569 316° Northwest 328 377 13,700 1,120 Climbing Atlanta Center
Sun 09:27:52 AM 34.0336 -84.4500 304° West 335 386 14,000 450 Climbing Atlanta Center
Sun 09:28:52 AM 34.0981 -84.5331 313° West 340 391 14,600 850 Climbing Atlanta Center
Sun 09:29:52 AM 34.1708 -84.6139 317° Northwest 340 391 15,700 1,600 Climbing Atlanta Center
Sun 09:30:52 AM 34.2433 -84.6972 316° Northwest 354 407 17,800 1,950 Climbing Atlanta Center
Sun 09:31:52 AM 34.3411 -84.7508 336° Northwest 389 448 19,600 1,950 Climbing Atlanta Center
Sun 09:32:52 AM 34.4472 -84.7994 339° North 402 463 21,700 2,050 Climbing Atlanta Center
Sun 09:33:52 AM 34.5681 -84.8536 340° North 412 474 23,700 1,650 Climbing Atlanta Center
Sun 09:34:52 AM 34.6700 -84.8975 341° North 418 481 25,000 1,350 Climbing Atlanta Center
Sun 09:35:52 AM 34.7864 -84.9492 340° North 430 495 26,400 1,500 Climbing Atlanta Center
Sun 09:36:52 AM 34.9069 -85.0011 341° North 442 509 28,000 1,400 Climbing Atlanta Center
Sun 09:37:52 AM 35.0003 -85.0936 321° Northwest 434 499 29,200 1,300 Climbing Atlanta Center
Sun 09:38:52 AM 35.0786 -85.2036 311° West 421 484 30,600 1,400 Climbing Atlanta Center
Sun 09:39:52 AM 35.1589 -85.3142 312° West 426 490 32,000 700 Climbing Atlanta Center
Sun 09:40:52 AM 35.2389 -85.4247 312° West 431 496 32,000  Level Atlanta Center
Sun 09:41:52 AM 35.3192 -85.5356 312° West 431 496 32,000 429 Level Atlanta Center
Sun 09:42:58 AM 35.4150 -85.6669 312° West 439 505 32,900 1,190 Climbing Memphis Center
Sun 09:43:58 AM 35.4922 -85.7772 311° West 439 505 34,500 1,200 Climbing Memphis Center
Sun 09:44:58 AM 35.5692 -85.8828 312° West 433 498 35,300 700 Climbing Memphis Center
Sun 09:45:58 AM 35.6503 -85.9958 311° West 433 498 35,900 350 Climbing Memphis Center
Sun 09:46:58 AM 35.7225 -86.0969 311° West 439 505 36,000 50 Climbing Memphis Center
Sun 09:47:58 AM 35.7994 -86.2108 310° West 439 505 36,000  Level Memphis Center
Sun 09:48:58 AM 35.8800 -86.3194 312° West 444 511 36,000  Level Memphis Center
Sun 09:49:58 AM 35.9631 -86.4306 313° West 444 511 36,000  Level Memphis Center
Sun 09:50:58 AM 36.0456 -86.5397 313° West 444 511 36,000  Level Memphis Center
Sun 09:51:58 AM 36.1281 -86.6489 313° West 439 505 36,000  Level Memphis Center
Sun 09:52:58 AM 36.2150 -86.7683 312° West 439 505 36,000  Level Memphis Center
Sun 09:53:58 AM 36.2928 -86.8681 314° West 439 505 36,000  Level Memphis Center
Sun 09:54:58 AM 36.3861 -86.9928 313° West 443 510 36,000  Level Memphis Center
Sun 09:55:58 AM 36.4617 -87.0956 312° West 450 518 36,000  Level Memphis Center
Sun 09:56:58 AM 36.5458 -87.2058 314° West 445 512 36,000  Level Memphis Center
Sun 09:57:58 AM 36.6300 -87.3189 313° West 450 518 36,000  Level Memphis Center
Sun 09:58:58 AM 36.7139 -87.4322 313° West 450 518 36,000  Level Memphis Center
Sun 09:59:58 AM 36.7978 -87.5458 313° West 450 518 36,000  Level Memphis Center
Sun 10:00:58 AM 36.8794 -87.6594 312° West 450 518 36,000  Level Memphis Center
Sun 10:01:58 AM 36.9719 -87.7836 313° West 445 512 36,000  Level Memphis Center
Sun 10:02:58 AM 37.0533 -87.8953 312° West 445 512 36,000  Level Memphis Center
Sun 10:03:58 AM 37.1347 -88.0075 312° West 440 506 36,000  Level Memphis Center
Sun 10:06:11 AM 37.3111 -88.2511 312° West 437 503 36,000  Level Kansas City Center
Sun 10:07:14 AM 37.3925 -88.3647 312° West 438 504 36,000  Level Kansas City Center
Sun 10:08:16 AM 37.4750 -88.4806 312° West 442 509 36,000  Level Kansas City Center
Sun 10:09:16 AM 37.5567 -88.5950 312° West 442 509 36,000  Level Kansas City Center
Sun 10:10:16 AM 37.6392 -88.7114 312° West 443 510 36,000  Level Kansas City Center
Sun 10:11:17 AM 37.7208 -88.8267 312° West 442 509 36,000  Level Kansas City Center
Sun 10:12:21 AM 37.8006 -88.9408 311° West 436 502 36,000  Level Kansas City Center
Sun 10:13:22 AM 37.8964 -89.0747 312° West 437 503 36,000  Level Kansas City Center
Sun 10:14:23 AM 37.9742 -89.1914 310° West 434 499 36,000  Level Kansas City Center
Sun 10:15:25 AM 38.0617 -89.3125 313° West 434 499 36,000  Level Kansas City Center
Sun 10:16:25 AM 38.1328 -89.4353 306° West 431 496 36,000  Level Kansas City Center
Sun 10:17:28 AM 38.2000 -89.5608 304° West 429 494 36,000  Level Kansas City Center
Sun 10:18:29 AM 38.2731 -89.6961 305° West 430 495 36,000  Level Kansas City Center
Sun 10:19:28 AM 38.3411 -89.8222 305° West 431 496 36,000  Level Kansas City Center
Sun 10:20:32 AM 38.4019 -89.9350 305° West 429 494 36,000  Level Kansas City Center
Sun 10:21:34 AM 38.4689 -90.0606 304° West 429 494 36,000  Level Kansas City Center
Sun 10:22:34 AM 38.5350 -90.1867 304° West 428 493 36,000  Level Kansas City Center
Sun 10:23:36 AM 38.6017 -90.3142 304° West 428 493 36,000  Level Kansas City Center
Sun 10:24:38 AM 38.6778 -90.4556 305° West 431 496 36,000  Level Kansas City Center
Sun 10:25:39 AM 38.7428 -90.5831 303° West 430 495 36,000  Level Kansas City Center
Sun 10:26:40 AM 38.8064 -90.7056 304° West 430 495 36,000  Level Kansas City Center
Sun 10:27:40 AM 38.8736 -90.8344 304° West 433 498 36,000  Level Kansas City Center
Sun 10:28:43 AM 38.9528 -90.9864 304° West 429 494 36,000  Level Kansas City Center
Sun 10:29:44 AM 39.0183 -91.1136 304° West 428 493 36,000  Level Kansas City Center
Sun 10:30:46 AM 39.0836 -91.2408 303° West 427 491 36,000  Level Kansas City Center
Sun 10:31:46 AM 39.1475 -91.3681 303° West 426 490 36,000  Level Kansas City Center
Sun 10:32:46 AM 39.2119 -91.4944 303° West 425 489 36,000  Level Kansas City Center
Sun 10:33:48 AM 39.2769 -91.6222 303° West 425 489 36,000  Level Kansas City Center
Sun 10:34:49 AM 39.3508 -91.7681 303° West 424 488 36,000  Level Kansas City Center
Sun 10:35:53 AM 39.4147 -91.8947 303° West 424 488 36,000  Level Kansas City Center
Sun 10:36:53 AM 39.4775 -92.0222 303° West 423 487 36,000  Level Kansas City Center
Sun 10:37:54 AM 39.5414 -92.1511 303° West 426 490 36,000  Level Kansas City Center
Sun 10:38:57 AM 39.6050 -92.2789 303° West 425 489 36,000  Level Kansas City Center
Sun 10:39:59 AM 39.6694 -92.4078 303° West 425 489 36,000  Level Kansas City Center
Sun 10:41:00 AM 39.7322 -92.5383 302° West 426 490 36,000  Level Kansas City Center
Sun 10:42:02 AM 39.7958 -92.6667 303° West 425 489 36,000  Level Kansas City Center
Sun 10:43:02 AM 39.8719 -92.8214 303° West 424 488 36,000  Level Kansas City Center
Sun 10:44:04 AM 39.9350 -92.9517 302° West 424 488 36,000  Level Kansas City Center
Sun 10:45:05 AM 39.9975 -93.0794 303° West 421 484 36,000  Level Kansas City Center
Sun 10:46:08 AM 40.0589 -93.2100 302° West 422 486 36,000  Level Kansas City Center
Sun 10:47:09 AM 40.1197 -93.3394 302° West 420 483 36,000  Level Kansas City Center
Sun 10:48:10 AM 40.1842 -93.4714 303° West 425 489 36,000  Level Kansas City Center
Sun 10:49:13 AM 40.2456 -93.6028 302° West 426 490 36,000  Level Kansas City Center
Sun 10:50:14 AM 40.3083 -93.7333 302° West 425 489 36,000  Level Kansas City Center
Sun 10:51:16 AM 40.3819 -93.8911 302° West 426 490 36,000  Level Kansas City Center
Sun 10:52:08 AM 40.4303 -93.9958 301° West 425 489 36,000  Level Minneapolis Center
Sun 10:53:09 AM 40.4919 -94.1278 302° West 425 489 36,000  Level Minneapolis Center
Sun 10:54:11 AM 40.5528 -94.2586 301° West 424 488 36,000  Level Minneapolis Center
Sun 10:55:24 AM 40.6375 -94.4408 302° West 420 483 36,000  Level Minneapolis Center
Sun 10:57:27 AM 40.7608 -94.7078 301° West 418 481 36,000  Level Minneapolis Center
Sun 10:58:28 AM 40.8211 -94.8392 301° West 418 481 36,000  Level Minneapolis Center
Sun 10:59:30 AM 40.8814 -94.9694 301° West 418 481 36,000  Level Minneapolis Center
Sun 11:00:32 AM 40.9411 -95.1028 301° West 421 484 36,000  Level Minneapolis Center
Sun 11:01:34 AM 41.0019 -95.2347 301° West 421 484 36,000  Level Minneapolis Center
Sun 11:02:35 AM 41.0611 -95.3675 301° West 421 484 36,000  Level Minneapolis Center
Sun 11:03:36 AM 41.1211 -95.5011 301° West 420 483 36,000  Level Minneapolis Center
Sun 11:04:38 AM 41.1925 -95.6586 301° West 423 487 36,000  Level Minneapolis Center
Sun 11:05:39 AM 41.2519 -95.7922 301° West 421 484 36,000  Level Minneapolis Center
Sun 11:06:40 AM 41.3108 -95.9286 300° West 425 489 36,000  Level Minneapolis Center
Sun 11:07:42 AM 41.3703 -96.0622 301° West 421 484 36,000  Level Minneapolis Center
Sun 11:08:43 AM 41.4289 -96.1961 300° West 419 482 36,000  Level Minneapolis Center
Sun 11:09:44 AM 41.4869 -96.3308 300° West 419 482 36,000  Level Minneapolis Center
Sun 11:10:46 AM 41.5511 -96.4789 300° West 414 476 36,000  Level Minneapolis Center
Sun 11:11:47 AM 41.6089 -96.6133 300° West 417 480 36,000  Level Minneapolis Center
Sun 11:12:48 AM 41.6667 -96.7481 300° West 419 482 36,000  Level Minneapolis Center
Sun 11:13:50 AM 41.7236 -96.8828 300° West 417 480 36,000  Level Minneapolis Center
Sun 11:14:51 AM 41.7825 -97.0186 300° West 420 483 36,000  Level Minneapolis Center
Sun 11:15:52 AM 41.8392 -97.1558 299° West 421 484 36,000 -49 Level Minneapolis Center
Sun 11:16:54 AM 41.8983 -97.2906 301° West 420 483 35,900 -488 Descending Minneapolis Center
Sun 11:17:55 AM 41.9528 -97.4228 299° West 410 472 35,000 -689 Descending Minneapolis Center
Sun 11:18:56 AM 42.0094 -97.5603 299° West 416 479 34,500 -492 Descending Minneapolis Center
Sun 11:19:57 AM 42.0669 -97.6989 299° West 421 484 34,000 -244 Descending Minneapolis Center
Sun 11:20:59 AM 42.1292 -97.8469 300° West 423 487 34,000  Level Minneapolis Center
Sun 11:22:00 AM 42.1864 -97.9839 299° West 422 486 34,000  Level Minneapolis Center
Sun 11:23:01 AM 42.2414 -98.1219 298° West 420 483 34,000  Level Minneapolis Center
Sun 11:24:03 AM 42.3078 -98.2853 299° West 417 480 34,000  Level Minneapolis Center
Sun 11:25:04 AM 42.3653 -98.4233 299° West 421 484 34,000  Level Minneapolis Center
Sun 11:26:06 AM 42.4208 -98.5622 298° West 421 484 34,000  Level Minneapolis Center
Sun 11:27:07 AM 42.4756 -98.6969 299° West 414 476 34,000  Level Minneapolis Center
Sun 11:28:08 AM 42.5261 -98.8353 296° West 411 473 34,000  Level Minneapolis Center
Sun 11:29:09 AM 42.5769 -98.9711 297° West 407 468 34,000  Level Minneapolis Center
Sun 11:30:11 AM 42.6292 -99.1125 297° West 416 479 34,000  Level Minneapolis Center
Sun 11:31:12 AM 42.6817 -99.2528 297° West 417 480 34,000  Level Minneapolis Center
Sun 11:32:13 AM 42.7333 -99.3942 296° West 418 481 34,000  Level Minneapolis Center
Sun 11:33:15 AM 42.7958 -99.5636 297° West 418 481 34,000  Level Minneapolis Center
Sun 11:34:16 AM 42.8431 -99.6978 296° West 419 482 34,000  Level Minneapolis Center
Sun 11:34:31 AM 42.8528 -99.7236 297° West 415 478 34,000  Level Denver Center
Sun 11:35:17 AM 42.8942 -99.8383 296° West 416 479 34,000  Level Minneapolis Center
Sun 11:36:18 AM 42.9458 -99.9794 297° West 416 479 34,000  Level Minneapolis Center
Sun 11:37:20 AM 42.9969 -100.1239 296° West 419 482 34,000  Level Minneapolis Center
Sun 11:37:37 AM 43.0172 -100.1797 296° West 419 482 34,000  Level Denver Center
Sun 11:38:39 AM 43.0675 -100.3228 296° West 418 481 34,000  Level Denver Center
Sun 11:39:24 AM 43.1081 -100.4372 296° West 416 479 34,000  Level Minneapolis Center
Sun 11:40:25 AM 43.1575 -100.5786 296° West 412 474 34,000  Level Minneapolis Center
Sun 11:40:43 AM 43.1675 -100.6069 296° West 414 476 34,000  Level Denver Center
Sun 11:41:44 AM 43.2167 -100.7489 295° West 413 475 34,000  Level Denver Center
Sun 11:42:46 AM 43.2661 -100.8878 296° West 406 467 34,000  Level Denver Center
Sun 11:43:48 AM 43.3144 -101.0289 295° West 407 468 34,000  Level Denver Center
Sun 11:44:50 AM 43.3731 -101.1983 295° West 408 470 34,000  Level Denver Center
Sun 11:45:52 AM 43.4206 -101.3375 295° West 403 464 34,000  Level Denver Center
Sun 11:46:54 AM 43.4683 -101.4783 295° West 404 465 34,000  Level Denver Center
Sun 11:47:56 AM 43.5167 -101.6200 295° West 407 468 34,000  Level Denver Center
Sun 11:48:58 AM 43.5647 -101.7619 295° West 407 468 34,000  Level Denver Center
Sun 11:50:00 AM 43.6114 -101.9031 295° West 404 465 34,000  Level Denver Center
Sun 11:51:02 AM 43.6589 -102.0431 295° West 402 463 34,000  Level Denver Center
Sun 11:52:04 AM 43.7097 -102.1983 294° West 402 463 34,000  Level Denver Center
Sun 11:53:06 AM 43.7619 -102.3528 295° West 400 460 34,000  Level Denver Center
Sun 11:54:08 AM 43.8042 -102.4839 294° West 393 452 34,000  Level Denver Center
Sun 11:55:09 AM 43.8542 -102.6361 295° West 391 450 34,000  Level Denver Center
Sun 11:56:11 AM 43.8969 -102.7678 294° West 392 451 34,000  Level Denver Center
Sun 11:57:13 AM 43.9464 -102.9194 294° West 389 448 34,000  Level Denver Center
Sun 11:58:15 AM 43.9881 -103.0483 294° West 387 445 34,000  Level Denver Center
Sun 11:59:17 AM 44.0436 -103.1972 297° West 387 445 34,000  Level Denver Center
Sun 12:00:19 PM 44.0872 -103.3217 296° West 381 438 34,000  Level Denver Center
Sun 12:01:21 PM 44.1328 -103.4472 297° West 381 438 34,000  Level Denver Center
Sun 12:02:23 PM 44.1842 -103.5942 296° West 379 436 34,000  Level Denver Center
Sun 12:03:25 PM 44.2300 -103.7219 297° West 384 442 34,000  Level Denver Center
Sun 12:04:27 PM 44.2833 -103.8744 296° West 390 449 34,000  Level Denver Center
Sun 12:05:29 PM 44.3292 -104.0028 297° West 388 447 34,000  Level Denver Center
Sun 12:06:31 PM 44.3808 -104.1547 295° West 388 447 34,000  Level Denver Center
Sun 12:07:33 PM 44.4269 -104.2842 297° West 389 448 34,000  Level Denver Center
Sun 12:08:36 PM 44.4775 -104.4347 295° West 383 441 34,000  Level Denver Center
Sun 12:09:38 PM 44.5222 -104.5619 296° West 381 438 34,000  Level Denver Center
Sun 12:10:40 PM 44.5731 -104.7119 295° West 382 440 34,000  Level Denver Center
Sun 12:11:42 PM 44.6167 -104.8411 295° West 382 440 34,000  Level Denver Center
Sun 12:12:44 PM 44.6686 -104.9919 296° West 383 441 34,000  Level Denver Center
Sun 12:13:46 PM 44.7119 -105.1247 295° West 389 448 34,000  Level Denver Center
Sun 12:14:48 PM 44.7592 -105.2642 296° West 391 450 34,000  Level Denver Center
Sun 12:15:50 PM 44.8103 -105.4197 295° West 391 450 34,000  Level Denver Center
Sun 12:16:52 PM 44.8547 -105.5539 295° West 395 455 34,000  Level Denver Center
Sun 12:17:54 PM 44.9067 -105.7114 295° West 397 457 34,000  Level Denver Center
Sun 12:18:56 PM 44.9511 -105.8458 295° West 397 457 34,000  Level Denver Center
Sun 12:19:58 PM 45.0019 -106.0031 295° West 395 455 34,000  Level Denver Center
Sun 12:21:00 PM 45.0453 -106.1394 294° West 397 457 34,000  Level Denver Center
Sun 12:22:02 PM 45.0958 -106.2956 295° West 393 452 34,000  Level Denver Center
Sun 12:23:04 PM 45.1394 -106.4300 295° West 392 451 34,000  Level Denver Center
Sun 12:24:06 PM 45.1892 -106.5878 294° West 393 452 34,000  Level Denver Center
Sun 12:25:10 PM 45.2322 -106.7228 294° West 393 452 34,000  Level Salt Lake Center
Sun 12:26:12 PM 45.2811 -106.8819 294° West 395 455 34,000  Level Salt Lake Center
Sun 12:27:13 PM 45.3250 -107.0189 295° West 396 456 34,000  Level Salt Lake Center
Sun 12:28:15 PM 45.3672 -107.1522 294° West 391 450 34,000  Level Salt Lake Center
Sun 12:29:17 PM 45.4161 -107.3172 293° West 404 465 34,000  Level Salt Lake Center
Sun 12:30:18 PM 45.4586 -107.4556 294° West 400 460 34,000  Level Salt Lake Center
Sun 12:31:20 PM 45.5075 -107.6169 293° West 398 458 34,000  Level Salt Lake Center
Sun 12:32:21 PM 45.5503 -107.7561 294° West 401 461 34,000  Level Salt Lake Center
Sun 12:33:23 PM 45.5992 -107.9186 293° West 402 463 34,000  Level Salt Lake Center
Sun 12:34:24 PM 45.6408 -108.0564 293° West 397 457 34,000  Level Salt Lake Center
Sun 12:35:26 PM 45.6886 -108.2178 293° West 396 456 34,000  Level Salt Lake Center
Sun 12:36:27 PM 45.7294 -108.3558 293° West 395 455 34,000  Level Salt Lake Center
Sun 12:37:29 PM 45.7708 -108.4947 293° West 397 457 34,000  Level Salt Lake Center
Sun 12:38:31 PM 45.8186 -108.6514 294° West 390 449 34,000  Level Salt Lake Center
Sun 12:39:32 PM 45.8522 -108.7928 289° West 390 449 34,000  Level Salt Lake Center
Sun 12:40:34 PM 45.8950 -108.9586 290° West 396 456 34,000  Level Salt Lake Center
Sun 12:41:35 PM 45.9308 -109.1006 290° West 395 455 34,000  Level Salt Lake Center
Sun 12:42:37 PM 45.9733 -109.2681 290° West 400 460 34,000  Level Salt Lake Center
Sun 12:43:38 PM 46.0094 -109.4114 290° West 400 460 34,000  Level Salt Lake Center
Sun 12:44:40 PM 46.0456 -109.5567 290° West 403 464 34,000  Level Salt Lake Center
Sun 12:45:41 PM 46.0878 -109.7256 290° West 404 465 34,000  Level Salt Lake Center
Sun 12:46:43 PM 46.1228 -109.8731 289° West 406 467 34,000  Level Salt Lake Center
Sun 12:47:44 PM 46.1628 -110.0428 289° West 401 461 34,000  Level Salt Lake Center
Sun 12:48:45 PM 46.1983 -110.1881 290° West 401 461 34,000  Level Salt Lake Center
Sun 12:49:47 PM 46.2322 -110.3339 289° West 401 461 34,000  Level Salt Lake Center
Sun 12:50:48 PM 46.2728 -110.5022 289° West 398 458 34,000  Level Salt Lake Center
Sun 12:51:50 PM 46.3072 -110.6481 289° West 400 460 34,000  Level Salt Lake Center
Sun 12:52:51 PM 46.3481 -110.8178 289° West 401 461 34,000  Level Salt Lake Center
Sun 12:53:53 PM 46.3844 -110.9764 288° West 401 461 34,000  Level Salt Lake Center
Sun 12:54:54 PM 46.4208 -111.1283 289° West 401 461 34,000  Level Salt Lake Center
Sun 12:55:56 PM 46.4558 -111.2872 288° West 403 464 34,000  Level Salt Lake Center
Sun 12:56:57 PM 46.4914 -111.4428 288° West 406 467 34,000  Level Salt Lake Center
Sun 12:57:59 PM 46.5264 -111.5978 288° West 405 466 34,000  Level Salt Lake Center
Sun 12:59:00 PM 46.5625 -111.7542 289° West 407 468 34,000  Level Salt Lake Center
Sun 01:00:02 PM 46.5961 -111.9097 288° West 406 467 34,000  Level Salt Lake Center
Sun 01:01:03 PM 46.6339 -112.0633 290° West 405 466 34,000  Level Salt Lake Center
Sun 01:02:05 PM 46.6717 -112.2164 290° West 403 464 34,000  Level Salt Lake Center
Sun 01:03:06 PM 46.7097 -112.3689 290° West 401 461 34,000  Level Salt Lake Center
Sun 01:04:07 PM 46.7458 -112.5197 289° West 397 457 34,000  Level Salt Lake Center
Sun 01:05:09 PM 46.7828 -112.6725 289° West 398 458 34,000  Level Salt Lake Center
Sun 01:06:10 PM 46.8264 -112.8522 290° West 394 453 34,000  Level Salt Lake Center
Sun 01:07:12 PM 46.8639 -113.0058 290° West 400 460 34,000  Level Salt Lake Center
Sun 01:08:13 PM 46.8989 -113.1544 289° West 390 449 34,000  Level Salt Lake Center
Sun 01:09:14 PM 46.9350 -113.3044 289° West 390 449 34,000  Level Salt Lake Center
Sun 01:10:16 PM 46.9697 -113.4544 289° West 389 448 34,000  Level Salt Lake Center
Sun 01:11:17 PM 47.0033 -113.6014 289° West 384 442 34,000  Level Salt Lake Center
Sun 01:12:18 PM 47.0378 -113.7492 289° West 381 438 34,000  Level Salt Lake Center
Sun 01:13:20 PM 47.0717 -113.8964 289° West 381 438 34,000  Level Salt Lake Center
Sun 01:14:21 PM 47.1047 -114.0436 288° West 380 437 34,000  Level Salt Lake Center
Sun 01:15:23 PM 47.1386 -114.1903 289° West 379 436 34,000  Level Salt Lake Center
Sun 01:16:24 PM 47.1783 -114.3681 288° West 382 440 34,000  Level Salt Lake Center
Sun 01:17:25 PM 47.2119 -114.5175 288° West 385 443 34,000  Level Salt Lake Center
Sun 01:18:15 PM 47.2400 -114.6383 289° West 386 444 34,000  Level Seattle Center
Sun 01:19:16 PM 47.2719 -114.7883 287° West 385 443 34,000  Level Seattle Center
Sun 01:20:16 PM 47.3056 -114.9403 288° West 387 445 34,000  Level Seattle Center
Sun 01:21:17 PM 47.3378 -115.0911 288° West 386 444 34,000  Level Seattle Center
Sun 01:22:18 PM 47.3703 -115.2400 288° West 383 441 34,000  Level Seattle Center
Sun 01:23:19 PM 47.4031 -115.3917 288° West 386 444 34,000  Level Seattle Center
Sun 01:24:20 PM 47.4342 -115.5403 287° West 382 440 34,000  Level Seattle Center
Sun 01:25:20 PM 47.4611 -115.6928 285° West 386 444 34,000  Level Seattle Center
Sun 01:26:21 PM 47.4697 -115.8550 275° West 384 442 34,000  Level Seattle Center
Sun 01:27:22 PM 47.4783 -116.0119 275° West 384 442 34,000  Level Seattle Center
Sun 01:28:23 PM 47.4878 -116.1689 275° West 385 443 34,000  Level Seattle Center
Sun 01:29:24 PM 47.4972 -116.3261 275° West 384 442 34,000  Level Seattle Center
Sun 01:30:25 PM 47.5056 -116.4839 275° West 386 444 34,000  Level Seattle Center
Sun 01:31:25 PM 47.5147 -116.6419 275° West 388 447 34,000  Level Seattle Center
Sun 01:32:26 PM 47.5236 -116.7997 275° West 385 443 34,000  Level Seattle Center
Sun 01:33:27 PM 47.5331 -116.9578 275° West 386 444 34,000  Level Seattle Center
Sun 01:34:28 PM 47.5406 -117.1386 274° West 384 442 34,000  Level Seattle Center
Sun 01:35:29 PM 47.5483 -117.2839 275° West 383 441 34,000  Level Seattle Center
Sun 01:36:30 PM 47.5564 -117.4425 274° West 385 443 34,000  Level Seattle Center
Sun 01:37:31 PM 47.5636 -117.5997 274° West 385 443 34,000  Level Seattle Center
Sun 01:38:32 PM 47.5764 -117.7569 277° West 384 442 34,000  Level Seattle Center
Sun 01:39:33 PM 47.5917 -117.9128 278° West 383 441 34,000  Level Seattle Center
Sun 01:40:34 PM 47.6094 -118.1006 278° West 386 444 34,000  Level Seattle Center
Sun 01:41:35 PM 47.6239 -118.2547 278° West 380 437 34,000  Level Seattle Center
Sun 01:42:35 PM 47.6372 -118.4111 277° West 383 441 34,000  Level Seattle Center
Sun 01:43:36 PM 47.6511 -118.5653 278° West 379 436 34,000  Level Seattle Center
Sun 01:44:37 PM 47.6639 -118.7211 277° West 382 440 34,000  Level Seattle Center
Sun 01:45:38 PM 47.6778 -118.8758 278° West 380 437 34,000  Level Seattle Center
Sun 01:46:39 PM 47.6908 -119.0342 277° West 387 445 34,000  Level Seattle Center
Sun 01:47:40 PM 47.7036 -119.1933 277° West 390 449 34,000  Level Seattle Center
Sun 01:48:41 PM 47.7183 -119.3533 278° West 392 451 34,000  Level Seattle Center
Sun 01:49:42 PM 47.7308 -119.5144 277° West 394 453 34,000 -443 Level Seattle Center
Sun 01:50:43 PM 47.7431 -119.6728 277° West 389 448 33,100 -934 Descending Seattle Center
Sun 01:51:44 PM 47.7547 -119.8258 277° West 376 433 32,100 -1,377 Descending Seattle Center
Sun 01:52:45 PM 47.7672 -119.9794 277° West 375 432 30,300 -2,016 Descending Seattle Center
Sun 01:53:46 PM 47.7806 -120.1525 277° West 355 409 28,000 -1,140 Descending Seattle Center
Sun 01:54:46 PM 47.7897 -120.2906 276° West 339 390 28,000  Level Seattle Center
Sun 01:55:47 PM 47.8008 -120.4283 277° West 337 388 28,000  Level Seattle Center
Sun 01:56:48 PM 47.8094 -120.5636 275° West 332 382 28,000 -934 Level Seattle Center
Sun 01:57:49 PM 47.8192 -120.6997 276° West 333 383 26,100 -1,869 Descending Seattle Center
Sun 01:58:50 PM 47.8278 -120.8267 276° West 317 365 24,200 -1,820 Descending Seattle Center
Sun 01:59:51 PM 47.8378 -120.9469 277° West 304 350 22,400 -1,770 Descending Seattle Center
Sun 02:00:52 PM 47.8461 -121.0631 276° West 291 335 20,600 -1,721 Descending Seattle Center
Sun 02:01:53 PM 47.8519 -121.1772 274° West 283 326 18,900 -1,574 Descending Seattle Center
Sun 02:02:54 PM 47.8600 -121.2925 276° West 283 326 17,400 -1,805 Descending Seattle Center
Sun 02:03:46 PM 47.8683 -121.4136 276° West 283 326 15,500 -1,967 Descending Seattle Center
Sun 02:04:56 PM 47.8758 -121.5447 275° West 280 322 13,400 -1,523 Descending Seattle Center
Sun 02:05:56 PM 47.8822 -121.6572 275° West 277 319 12,200 -743 Descending Seattle Center
Sun 02:06:49 PM 47.8542 -121.7464 245° Southwest 273 314 12,000 -600 Descending Seattle Center
Sun 02:07:56 PM 47.7967 -121.8256 223° Southwest 264 304 11,000 -844 Descending Seattle Center
Sun 02:08:57 PM 47.7786 -121.9117 253° West 210 242 10,200 -1,065 Descending Seattle Center
Sun 02:10:00 PM 47.7736 -121.9956 265° West 215 247 8,800 -1,452 Descending Seattle Center
Sun 02:11:01 PM 47.7822 -122.0961 277° West 220 253 7,200 -1,402 Descending Seattle Center
Sun 02:11:47 PM 47.7900 -122.1661 279° West 223 257 6,300 -1,082 Descending Seattle Center
Sun 02:12:02 PM 47.7908 -122.1942 273° West 223 257 6,100 -316 Descending Seattle Center
Sun 02:13:03 PM 47.7519 -122.2619 230° Southwest 221 254 5,900 -639 Descending Seattle Center
Sun 02:14:04 PM 47.6978 -122.3025 207° Southwest 219 252 4,800 -903 Descending Seattle Center
Sun 02:14:56 PM 47.6481 -122.3175 191° South 218 251 4,200 -1,062 Descending Seattle Center
Sun 02:15:57 PM 47.5844 -122.3200 182° South 204 235 2,800 -1,190 Descending Seattle Center
Sun 02:16:57 PM 47.5350 -122.3178 178° South 173 199 1,800 -887 Descending Seattle Center
Sun 02:17:52 PM 47.4947 -122.3169 179° South 147 169 1,100 -686 Descending Seattle Center
Sun 02:18:07 PM 47.4886 -122.3175 184° South 153 176 1,000 -553 Descending Seattle Center
Sun 02:19:08 PM 47.4450 -122.3186 181° South 145 167 400 -590 Descending Seattle Center

Login

Don't have an account? Register now (free) for customized features, flight alerts, and more!